createdAt,value
2022-10-18T00:01:27.045Z,102049.00
2022-10-18T00:03:59.054Z,102048.75
2022-10-18T00:06:30.655Z,102053.34
2022-10-18T00:09:04.446Z,102052.97
2022-10-18T00:11:38.894Z,102055.19
2022-10-18T00:14:10.965Z,102046.13
2022-10-18T00:16:42.634Z,102039.00
2022-10-18T00:19:14.704Z,102047.16
2022-10-18T00:21:46.577Z,102057.03
2022-10-18T00:24:18.713Z,102051.41
2022-10-18T00:26:55.937Z,102060.13
2022-10-18T00:29:28.105Z,102068.00
2022-10-18T00:31:59.726Z,102068.09
2022-10-18T00:34:31.787Z,102071.84
2022-10-18T00:37:03.385Z,102077.97
2022-10-18T00:39:35.587Z,102073.03
2022-10-18T00:42:10.144Z,102077.63
2022-10-18T00:45:14.495Z,102070.44
2022-10-18T00:47:49.055Z,102070.53
2022-10-18T00:50:23.254Z,102071.09
2022-10-18T00:52:58.577Z,102072.69
2022-10-18T00:55:31.862Z,102074.44
2022-10-18T00:58:08.363Z,102070.72
2022-10-18T01:00:42.353Z,102076.25
2022-10-18T01:03:14.372Z,102075.00
2022-10-18T01:05:49.722Z,102081.88
2022-10-18T01:08:47.206Z,102074.66
2022-10-18T01:11:36.625Z,102083.50
2022-10-18T01:14:22.835Z,102083.34
2022-10-18T01:17:08.087Z,102087.59
2022-10-18T01:20:14.875Z,102094.78
2022-10-18T01:22:51.804Z,102085.53
2022-10-18T01:25:43.473Z,102084.13
2022-10-18T01:28:31.787Z,102079.72
2022-10-18T01:31:10.336Z,102079.41
2022-10-18T01:33:46.856Z,102075.75
2022-10-18T01:36:24.413Z,102074.59
2022-10-18T01:39:00.525Z,102069.16
2022-10-18T01:41:32.775Z,102074.34
2022-10-18T01:44:09.000Z,102078.28
2022-10-18T01:46:45.033Z,102070.94
2022-10-18T01:49:21.635Z,102070.81
2022-10-18T01:51:54.124Z,102079.34
2022-10-18T01:54:34.277Z,102080.78
2022-10-18T01:57:14.170Z,102067.22
2022-10-18T01:59:56.646Z,102074.03
2022-10-18T02:02:49.995Z,102068.72
2022-10-18T02:05:27.675Z,102067.72
2022-10-18T02:08:12.558Z,102068.84
2022-10-18T02:10:58.925Z,102063.09
2022-10-18T02:13:40.425Z,102070.31
2022-10-18T02:16:16.517Z,102066.28
2022-10-18T02:18:56.569Z,102064.81
2022-10-18T02:21:31.085Z,102067.53
2022-10-18T02:24:05.652Z,102065.00
2022-10-18T02:26:38.006Z,102064.97
2022-10-18T02:29:10.623Z,102077.81
2022-10-18T02:31:47.102Z,102072.28
2022-10-18T02:34:25.655Z,102070.84
2022-10-18T02:37:01.146Z,102082.66
2022-10-18T02:39:36.415Z,102089.53
2022-10-18T02:42:09.894Z,102094.59
2022-10-18T02:44:42.234Z,102093.53
2022-10-18T02:47:15.346Z,102097.84
2022-10-18T02:49:49.626Z,102096.06
2022-10-18T02:52:21.631Z,102088.63
2022-10-18T02:54:53.333Z,102095.78
2022-10-18T02:57:25.464Z,102090.63
2022-10-18T02:59:57.156Z,102085.34
2022-10-18T03:02:29.583Z,102086.25
2022-10-18T03:05:03.914Z,102093.09
2022-10-18T03:07:35.966Z,102097.00
2022-10-18T03:10:08.369Z,102101.34
2022-10-18T03:12:40.570Z,102101.53
2022-10-18T03:15:13.182Z,102114.22
2022-10-18T03:17:45.186Z,102127.97
2022-10-18T03:20:20.014Z,102124.59
2022-10-18T03:22:52.087Z,102127.59
2022-10-18T03:25:23.765Z,102122.31
2022-10-18T03:27:55.753Z,102126.06
2022-10-18T03:30:27.447Z,102123.31
2022-10-18T03:32:59.565Z,102107.00
2022-10-18T03:35:34.057Z,102109.00
2022-10-18T03:38:06.085Z,102109.97
2022-10-18T03:40:38.343Z,102108.78
2022-10-18T03:43:10.263Z,102103.53
2022-10-18T03:45:42.593Z,102108.91
2022-10-18T03:48:14.617Z,102105.34
2022-10-18T03:50:49.314Z,102106.19
2022-10-18T03:53:21.496Z,102110.34
2022-10-18T03:55:54.655Z,102112.97
2022-10-18T03:58:27.449Z,102114.25
2022-10-18T04:00:59.467Z,102108.44
2022-10-18T04:03:31.518Z,102099.78
2022-10-18T04:06:05.863Z,102112.47
2022-10-18T04:08:37.938Z,102106.00
2022-10-18T04:11:12.274Z,102114.34
2022-10-18T04:13:44.275Z,102110.75
2022-10-18T04:16:16.004Z,102114.78
2022-10-18T04:18:48.125Z,102115.78
2022-10-18T04:21:22.648Z,102119.28
2022-10-18T04:23:58.682Z,102115.19
2022-10-18T04:26:30.338Z,102105.94
2022-10-18T04:29:02.469Z,102107.25
2022-10-18T04:31:34.547Z,102111.53
2022-10-18T04:34:07.343Z,102118.78
2022-10-18T04:36:41.667Z,102105.81
2022-10-18T04:39:13.785Z,102111.16
2022-10-18T04:41:45.436Z,102117.88
2022-10-18T04:44:21.243Z,102107.97
2022-10-18T04:46:53.167Z,102112.16
2022-10-18T04:49:25.150Z,102112.53
2022-10-18T04:51:59.468Z,102099.72
2022-10-18T04:54:31.505Z,102112.41
2022-10-18T04:57:03.255Z,102114.47
2022-10-18T04:59:35.335Z,102108.03
2022-10-18T05:02:07.308Z,102120.59
2022-10-18T05:04:40.184Z,102116.53
2022-10-18T05:07:14.571Z,102101.59
2022-10-18T05:09:46.803Z,102104.66
2022-10-18T05:12:18.724Z,102116.88
2022-10-18T05:14:50.933Z,102108.03
2022-10-18T05:17:22.847Z,102105.81
2022-10-18T05:19:55.043Z,102094.63
2022-10-18T05:22:29.541Z,102101.69
2022-10-18T05:25:01.861Z,102094.38
2022-10-18T05:27:33.785Z,102098.56
2022-10-18T05:30:07.175Z,102106.13
2022-10-18T05:32:38.985Z,102108.19
2022-10-18T05:35:11.825Z,102103.44
2022-10-18T05:37:46.266Z,102100.94
2022-10-18T05:40:18.665Z,102096.72
2022-10-18T05:42:50.448Z,102103.00
2022-10-18T05:45:22.812Z,102102.66
2022-10-18T05:47:54.583Z,102107.03
2022-10-18T05:50:26.834Z,102102.09
2022-10-18T05:53:11.959Z,102107.22
2022-10-18T05:55:50.668Z,102111.31
2022-10-18T05:58:22.645Z,102105.25
2022-10-18T06:00:54.904Z,102107.78
2022-10-18T06:03:27.800Z,102117.13
2022-10-18T06:06:03.409Z,102116.44
2022-10-18T06:08:38.699Z,102112.53
2022-10-18T06:11:11.311Z,102100.97
2022-10-18T06:13:44.263Z,102095.53
2022-10-18T06:16:18.034Z,102089.63
2022-10-18T06:18:52.055Z,102098.94
2022-10-18T06:21:24.937Z,102096.91
2022-10-18T06:24:01.282Z,102103.84
2022-10-18T06:26:35.254Z,102101.66
2022-10-18T06:29:07.327Z,102101.50
2022-10-18T06:31:39.714Z,102095.91
2022-10-18T06:34:11.601Z,102080.75
2022-10-18T06:36:43.795Z,102077.75
2022-10-18T06:39:18.304Z,102079.97
2022-10-18T06:41:50.496Z,102095.59
2022-10-18T06:44:22.496Z,102108.97
2022-10-18T06:46:55.041Z,102101.81
2022-10-18T06:49:29.517Z,102100.72
2022-10-18T06:52:03.155Z,102109.25
2022-10-18T06:54:38.085Z,102110.06
2022-10-18T06:57:10.678Z,102109.59
2022-10-18T06:59:43.435Z,102111.78
2022-10-18T07:02:19.927Z,102113.81
2022-10-18T07:04:55.597Z,102113.56
2022-10-18T07:07:28.236Z,102112.16
2022-10-18T07:10:03.076Z,102111.34
2022-10-18T07:12:36.441Z,102128.56
2022-10-18T07:15:09.876Z,102120.09
2022-10-18T07:17:42.557Z,102134.84
2022-10-18T07:20:14.957Z,102136.31
2022-10-18T07:22:47.691Z,102145.31
2022-10-18T07:25:24.798Z,102147.13
2022-10-18T07:27:59.916Z,102159.28
2022-10-18T07:30:32.076Z,102155.41
2022-10-18T07:33:04.677Z,102164.28
2022-10-18T07:35:36.886Z,102163.28
2022-10-18T07:38:09.557Z,102172.88
2022-10-18T07:40:44.800Z,102167.97
2022-10-18T07:43:17.517Z,102173.13
2022-10-18T07:45:55.875Z,102171.47
2022-10-18T07:48:28.639Z,102170.31
2022-10-18T07:51:02.882Z,102178.63
2022-10-18T07:53:35.797Z,102168.16
2022-10-18T07:56:16.482Z,102169.31
2022-10-18T07:58:51.522Z,102166.28
2022-10-18T08:01:24.650Z,102166.50
2022-10-18T08:03:57.393Z,102170.94
2022-10-18T08:06:29.675Z,102160.44
2022-10-18T08:09:02.314Z,102165.84
2022-10-18T08:11:37.194Z,102161.09
2022-10-18T08:14:09.962Z,102163.53
2022-10-18T08:16:42.155Z,102152.34
2022-10-18T08:19:15.172Z,102155.66
2022-10-18T08:21:47.514Z,102153.75
2022-10-18T08:24:30.363Z,102148.44
2022-10-18T08:27:05.323Z,102156.03
2022-10-18T08:29:37.924Z,102157.00
2022-10-18T08:32:10.955Z,102155.06
2022-10-18T08:34:43.596Z,102161.84
2022-10-18T08:37:16.035Z,102158.88
2022-10-18T08:39:48.878Z,102162.44
2022-10-18T08:42:42.756Z,102159.34
2022-10-18T08:45:30.151Z,102158.53
2022-10-18T08:48:11.156Z,102154.34
2022-10-18T08:50:44.756Z,102146.22
2022-10-18T08:53:22.717Z,102149.31
2022-10-18T08:56:01.279Z,102152.66
2022-10-18T08:58:36.876Z,102146.50
2022-10-18T09:01:23.195Z,102158.75
2022-10-18T09:04:18.676Z,102158.81
2022-10-18T09:07:02.394Z,102156.56
2022-10-18T09:09:43.034Z,102158.28
2022-10-18T09:12:34.517Z,102163.06
2022-10-18T09:15:23.433Z,102165.25
2022-10-18T09:18:11.811Z,102166.44
2022-10-18T09:20:53.953Z,102174.44
2022-10-18T09:23:44.555Z,102173.41
2022-10-18T09:26:20.649Z,102167.66
2022-10-18T09:29:07.503Z,102170.03
2022-10-18T09:31:50.914Z,102159.69
2022-10-18T09:34:32.356Z,102162.56
2022-10-18T09:37:05.766Z,102161.03
2022-10-18T09:39:42.400Z,102155.94
2022-10-18T09:42:26.778Z,102155.44
2022-10-18T09:45:03.962Z,102157.28
2022-10-18T09:47:43.676Z,102154.38
2022-10-18T09:50:25.756Z,102154.25
2022-10-18T09:53:11.919Z,102161.38
2022-10-18T09:55:53.233Z,102153.69
2022-10-18T09:58:48.172Z,102155.78
2022-10-18T10:01:27.918Z,102163.31
2022-10-18T10:04:02.961Z,102169.16
2022-10-18T10:06:39.038Z,102171.22
2022-10-18T10:09:17.873Z,102164.16
2022-10-18T10:11:52.809Z,102161.19
2022-10-18T10:14:27.332Z,102166.28
2022-10-18T10:17:03.637Z,102163.72
2022-10-18T10:19:41.036Z,102157.41
2022-10-18T10:22:15.675Z,102161.59
2022-10-18T10:24:52.036Z,102152.38
2022-10-18T10:27:27.998Z,102151.22
2022-10-18T10:30:06.748Z,102149.44
2022-10-18T10:32:50.518Z,102157.94
2022-10-18T10:35:49.033Z,102154.63
2022-10-18T10:38:29.885Z,102149.09
2022-10-18T10:41:02.677Z,102146.59
2022-10-18T10:43:39.259Z,102135.78
2022-10-18T10:46:15.315Z,102136.25
2022-10-18T10:49:04.455Z,102132.44
2022-10-18T10:51:53.775Z,102126.75
2022-10-18T10:54:39.238Z,102112.03
2022-10-18T10:57:26.597Z,102104.53
2022-10-18T11:00:01.493Z,102105.69
2022-10-18T11:02:35.844Z,102119.78
2022-10-18T11:05:25.247Z,102116.06
2022-10-18T11:08:05.517Z,102115.50
2022-10-18T11:10:46.481Z,102118.13
2022-10-18T11:13:31.838Z,102123.91
2022-10-18T11:16:31.117Z,102118.00
2022-10-18T11:19:13.600Z,102113.94
2022-10-18T11:21:46.718Z,102117.53
2022-10-18T11:24:21.637Z,102108.91
2022-10-18T11:27:00.645Z,102112.97
2022-10-18T11:29:54.484Z,102106.16
2022-10-18T11:32:34.652Z,102124.25
2022-10-18T11:35:25.077Z,102119.19
2022-10-18T11:38:16.294Z,102108.72
2022-10-18T11:41:00.836Z,102117.19
2022-10-18T11:44:01.086Z,102107.59
2022-10-18T11:46:44.558Z,102109.16
2022-10-18T11:49:41.516Z,102095.44
2022-10-18T11:52:24.637Z,102098.13
2022-10-18T11:55:15.714Z,102085.50
2022-10-18T11:57:58.139Z,102072.97
2022-10-18T12:00:47.356Z,102083.69
2022-10-18T12:03:25.917Z,102090.63
2022-10-18T12:06:01.885Z,102096.50
2022-10-18T12:08:39.524Z,102089.09
2022-10-18T12:11:18.209Z,102091.25
2022-10-18T12:13:58.035Z,102088.84
2022-10-18T12:17:06.782Z,102088.25
2022-10-18T12:19:33.318Z,102089.75
2022-10-18T12:22:17.956Z,102081.84
2022-10-18T12:24:50.519Z,102084.34
2022-10-18T12:27:35.556Z,102091.94
2022-10-18T12:30:23.755Z,102078.25
2022-10-18T12:33:23.245Z,102079.16
2022-10-18T12:36:04.234Z,102075.56
2022-10-18T12:38:40.916Z,102078.94
2022-10-18T12:41:19.876Z,102076.72
2022-10-18T12:43:58.078Z,102075.16
2022-10-18T12:46:47.559Z,102064.41
2022-10-18T12:49:25.757Z,102067.84
2022-10-18T12:51:59.879Z,102069.63
2022-10-18T12:54:34.516Z,102068.88
2022-10-18T12:57:08.357Z,102072.03
2022-10-18T12:59:44.676Z,102064.66
2022-10-18T13:02:36.924Z,102066.06
2022-10-18T13:05:42.026Z,102065.94
2022-10-18T13:08:46.237Z,102065.28
2022-10-18T13:11:36.598Z,102069.16
2022-10-18T13:14:53.629Z,102076.88
2022-10-18T13:17:48.359Z,102068.06
2022-10-18T13:20:29.197Z,102070.78
2022-10-18T13:26:16.919Z,102066.91
2022-10-18T13:28:58.943Z,102063.47
2022-10-18T13:31:39.146Z,102068.06
2022-10-18T13:34:29.809Z,102075.09
2022-10-18T13:37:03.929Z,102073.53
2022-10-18T13:39:37.071Z,102066.31
2022-10-18T13:42:31.579Z,102072.03
2022-10-18T13:45:34.083Z,102065.09
2022-10-18T13:48:35.959Z,102070.38
2022-10-18T13:51:34.561Z,102064.53
2022-10-18T13:54:19.952Z,102065.16
2022-10-18T13:57:08.795Z,102065.94
2022-10-18T14:00:19.293Z,102072.00
2022-10-18T14:03:44.419Z,102070.63
2022-10-18T14:06:22.831Z,102078.03
2022-10-18T14:09:09.561Z,102072.34
2022-10-18T14:11:54.347Z,102084.78
2022-10-18T14:14:35.623Z,102084.88
2022-10-18T14:17:18.044Z,102098.03
2022-10-18T14:19:55.910Z,102107.91
2022-10-18T14:22:37.508Z,102101.59
2022-10-18T14:25:24.297Z,102101.41
2022-10-18T14:28:11.421Z,102096.22
2022-10-18T14:30:59.386Z,102105.16
2022-10-18T14:33:36.112Z,102103.22
2022-10-18T14:36:15.378Z,102103.00
2022-10-18T14:38:56.960Z,102099.41
2022-10-18T14:41:31.388Z,102106.69
2022-10-18T14:44:21.898Z,102108.50
2022-10-18T14:46:56.161Z,102108.84
2022-10-18T14:49:28.545Z,102106.47
2022-10-18T14:52:03.485Z,102096.31
2022-10-18T14:54:41.416Z,102101.28
2022-10-18T14:57:25.048Z,102101.81
2022-10-18T14:59:59.845Z,102106.81
2022-10-18T15:02:35.549Z,102103.75
2022-10-18T15:05:13.726Z,102102.84
2022-10-18T15:07:47.412Z,102100.84
2022-10-18T15:10:25.249Z,102104.28
2022-10-18T15:13:09.875Z,102104.06
2022-10-18T15:15:43.583Z,102106.91
2022-10-18T15:18:24.227Z,102101.69
2022-10-18T15:21:12.612Z,102103.69
2022-10-18T15:23:45.166Z,102104.34
2022-10-18T15:26:26.964Z,102107.84
2022-10-18T15:29:04.322Z,102107.19
2022-10-18T15:31:46.384Z,102103.63
2022-10-18T15:34:23.892Z,102119.94
2022-10-18T15:36:58.164Z,102114.56
2022-10-18T15:39:32.605Z,102108.63
2022-10-18T15:42:07.744Z,102102.19
2022-10-18T15:44:51.900Z,102108.44
2022-10-18T15:47:27.663Z,102111.69
2022-10-18T15:50:01.621Z,102110.00
2022-10-18T15:52:40.186Z,102110.84
2022-10-18T15:55:52.582Z,102117.59
2022-10-18T15:58:29.822Z,102114.81
2022-10-18T16:01:05.033Z,102110.94
2022-10-18T16:03:39.751Z,102114.78
2022-10-18T16:06:16.053Z,102105.09
2022-10-18T16:08:52.008Z,102104.69
2022-10-18T16:11:27.511Z,102098.59
2022-10-18T16:14:02.356Z,102112.28
2022-10-18T16:16:35.231Z,102113.44
2022-10-18T16:19:07.596Z,102116.25
2022-10-18T16:21:41.672Z,102116.44
2022-10-18T16:24:14.032Z,102112.09
2022-10-18T16:26:46.754Z,102124.28
2022-10-18T16:29:26.473Z,102119.78
2022-10-18T16:32:00.198Z,102131.72
2022-10-18T16:34:32.592Z,102136.34
2022-10-18T16:37:05.266Z,102125.44
2022-10-18T16:39:37.482Z,102132.94
2022-10-18T16:42:10.346Z,102133.78
2022-10-18T16:44:45.706Z,102130.09
2022-10-18T16:47:18.628Z,102134.38
2022-10-18T16:49:50.786Z,102142.38
2022-10-18T16:52:23.546Z,102140.78
2022-10-18T16:54:55.705Z,102152.72
2022-10-18T16:57:28.426Z,102152.59
2022-10-18T17:00:03.189Z,102147.22
2022-10-18T17:02:35.906Z,102144.44
2022-10-18T17:05:08.828Z,102152.22
2022-10-18T17:07:41.584Z,102150.94
2022-10-18T17:10:16.108Z,102157.13
2022-10-18T17:12:49.154Z,102148.94
2022-10-18T17:15:24.104Z,102146.78
2022-10-18T17:17:56.788Z,102147.25
2022-10-18T17:20:30.106Z,102150.94
2022-10-18T17:23:02.865Z,102141.56
2022-10-18T17:25:42.186Z,102142.03
2022-10-18T17:28:25.238Z,102141.69
2022-10-18T17:31:00.230Z,102146.69
2022-10-18T17:33:32.984Z,102149.00
2022-10-18T17:36:05.471Z,102157.03
2022-10-18T17:38:38.427Z,102152.81
2022-10-18T17:41:11.802Z,102151.84
2022-10-18T17:43:44.882Z,102150.47
2022-10-18T17:46:19.950Z,102152.00
2022-10-18T17:48:52.683Z,102155.03
2022-10-18T17:51:24.914Z,102157.78
2022-10-18T17:53:57.714Z,102160.78
2022-10-18T17:56:33.626Z,102157.78
2022-10-18T17:59:06.627Z,102166.03
2022-10-18T18:01:41.786Z,102163.94
2022-10-18T18:04:15.347Z,102155.81
2022-10-18T18:06:49.272Z,102161.94
2022-10-18T18:09:22.626Z,102166.94
2022-10-18T18:11:55.587Z,102164.72
2022-10-18T18:14:28.908Z,102169.03
2022-10-18T18:17:04.506Z,102168.72
2022-10-18T18:19:37.128Z,102170.44
2022-10-18T18:22:09.388Z,102174.41
2022-10-18T18:24:42.157Z,102175.78
2022-10-18T18:27:14.306Z,102178.50
2022-10-18T18:29:46.946Z,102178.50
2022-10-18T18:32:21.748Z,102174.25
2022-10-18T18:34:54.706Z,102182.81
2022-10-18T18:37:26.906Z,102180.38
2022-10-18T18:39:59.664Z,102188.47
2022-10-18T18:42:32.092Z,102188.53
2022-10-18T18:45:05.345Z,102184.19
2022-10-18T18:47:40.064Z,102191.69
2022-10-18T18:50:12.985Z,102197.25
2022-10-18T18:52:45.233Z,102188.91
2022-10-18T18:55:18.266Z,102196.25
2022-10-18T18:57:50.505Z,102182.94
2022-10-18T19:00:23.395Z,102187.34
2022-10-18T19:02:58.145Z,102185.00
2022-10-18T19:05:30.906Z,102185.47
2022-10-18T19:08:03.106Z,102190.22
2022-10-18T19:10:35.906Z,102189.50
2022-10-18T19:13:08.106Z,102185.16
2022-10-18T19:15:40.630Z,102183.38
2022-10-18T19:18:15.775Z,102186.31
2022-10-18T19:20:50.026Z,102193.06
2022-10-18T19:23:22.360Z,102196.88
2022-10-18T19:25:54.945Z,102200.47
2022-10-18T19:28:27.103Z,102205.91
2022-10-18T19:30:59.867Z,102194.69
2022-10-18T19:33:47.896Z,102204.94
2022-10-18T19:36:21.225Z,102200.88
2022-10-18T19:38:53.306Z,102210.88
2022-10-18T19:41:26.566Z,102202.50
2022-10-18T19:43:59.264Z,102198.25
2022-10-18T19:46:31.946Z,102203.41
2022-10-18T19:49:06.787Z,102207.69
2022-10-18T19:51:40.147Z,102204.72
2022-10-18T19:54:14.069Z,102218.63
2022-10-18T19:56:47.585Z,102230.22
2022-10-18T19:59:21.466Z,102231.66
2022-10-18T20:01:54.145Z,102229.13
2022-10-18T20:04:34.392Z,102225.44
2022-10-18T20:07:06.992Z,102233.88
2022-10-18T20:09:40.026Z,102230.16
2022-10-18T20:12:12.625Z,102231.03
2022-10-18T20:14:44.994Z,102234.66
2022-10-18T20:17:17.827Z,102234.28
2022-10-18T20:19:54.027Z,102237.53
2022-10-18T20:22:26.669Z,102243.78
2022-10-18T20:24:59.064Z,102249.47
2022-10-18T20:27:34.688Z,102247.66
2022-10-18T20:30:10.511Z,102246.91
2022-10-18T20:32:44.715Z,102251.59
2022-10-18T20:35:19.867Z,102249.31
2022-10-18T20:37:52.674Z,102246.75
2022-10-18T20:40:24.985Z,102248.59
2022-10-18T20:43:02.834Z,102250.31
2022-10-18T20:45:36.186Z,102246.22
2022-10-18T20:48:09.025Z,102255.44
2022-10-18T20:50:46.786Z,102247.59
2022-10-18T20:53:18.668Z,102242.63
2022-10-18T20:55:51.379Z,102242.63
2022-10-18T20:58:26.106Z,102249.19
2022-10-18T21:01:00.989Z,102243.38
2022-10-18T21:03:36.059Z,102249.59
2022-10-18T21:06:28.618Z,102241.09
2022-10-18T21:09:02.671Z,102244.94
2022-10-18T21:11:37.396Z,102248.91
2022-10-18T21:14:10.154Z,102235.84
2022-10-18T21:16:41.258Z,102234.84
2022-10-18T21:19:15.162Z,102241.06
2022-10-18T21:21:50.932Z,102251.16
2022-10-18T21:24:24.094Z,102244.91
2022-10-18T21:26:55.035Z,102249.03
2022-10-18T21:29:27.511Z,102237.78
2022-10-18T21:32:01.094Z,102243.03
2022-10-18T21:34:32.382Z,102243.63
2022-10-18T21:37:05.752Z,102237.38
2022-10-18T21:39:36.928Z,102234.13
2022-10-18T21:42:08.973Z,102240.94
2022-10-18T21:44:40.349Z,102231.28
2022-10-18T21:47:11.693Z,102227.63
2022-10-18T21:49:42.914Z,102224.94
2022-10-18T21:52:18.707Z,102231.41
2022-10-18T21:54:56.604Z,102233.16
2022-10-18T21:57:27.559Z,102236.03
2022-10-18T21:59:58.622Z,102237.53
2022-10-18T22:02:29.546Z,102237.84
2022-10-18T22:05:07.021Z,102248.00
2022-10-18T22:07:43.001Z,102236.50
2022-10-18T22:10:14.795Z,102234.44
2022-10-18T22:12:45.586Z,102236.13
2022-10-18T22:15:16.716Z,102236.94
2022-10-18T22:17:47.590Z,102234.44
2022-10-18T22:20:22.453Z,102237.38
2022-10-18T22:22:59.594Z,102234.59
2022-10-18T22:25:30.889Z,102224.50
2022-10-18T22:28:01.615Z,102223.47
2022-10-18T22:30:33.888Z,102232.56
2022-10-18T22:33:04.645Z,102220.38
2022-10-18T22:35:36.150Z,102219.22
2022-10-18T22:38:09.638Z,102212.13
2022-10-18T22:40:40.815Z,102211.13
2022-10-18T22:43:11.698Z,102213.25
2022-10-18T22:45:43.203Z,102211.41
2022-10-18T22:48:26.314Z,102215.13
2022-10-18T22:50:59.197Z,102211.56
2022-10-18T22:53:33.977Z,102202.91
2022-10-18T22:56:07.310Z,102206.69
2022-10-18T22:58:38.765Z,102203.59
2022-10-18T23:01:12.378Z,102200.91
2022-10-18T23:03:44.246Z,102198.91
2022-10-18T23:06:23.337Z,102200.19
2022-10-18T23:08:58.716Z,102196.78
2022-10-18T23:11:32.096Z,102197.91
2022-10-18T23:14:04.218Z,102197.47
2022-10-18T23:16:35.937Z,102204.25
2022-10-18T23:19:07.952Z,102201.84
2022-10-18T23:21:39.905Z,102203.56
2022-10-18T23:24:14.118Z,102207.56
2022-10-18T23:26:46.037Z,102197.47
2022-10-18T23:29:17.787Z,102199.69
2022-10-18T23:31:49.778Z,102197.88
2022-10-18T23:34:21.530Z,102198.81
2022-10-18T23:36:53.558Z,102207.84
2022-10-18T23:39:27.842Z,102199.34
2022-10-18T23:41:59.846Z,102200.53
2022-10-18T23:44:31.507Z,102206.25
2022-10-18T23:47:03.487Z,102204.69
2022-10-18T23:49:35.456Z,102200.69
2022-10-18T23:52:07.897Z,102203.31
2022-10-18T23:54:42.225Z,102206.69
2022-10-18T23:57:14.246Z,102202.63
2022-10-18T23:59:45.919Z,102204.66
